createdAt,value
2023-05-15T00:00:51.515Z,19.50
2023-05-15T00:03:38.839Z,19.40
2023-05-15T00:06:26.423Z,19.30
2023-05-15T00:09:13.623Z,19.30
2023-05-15T00:12:00.808Z,19.40
2023-05-15T00:14:48.034Z,19.40
2023-05-15T00:17:35.575Z,19.30
2023-05-15T00:20:22.786Z,19.30
2023-05-15T00:23:10.379Z,19.20
2023-05-15T00:25:57.576Z,19.20
2023-05-15T00:28:44.843Z,19.20
2023-05-15T00:31:33.573Z,19.20
2023-05-15T00:34:22.042Z,19.10
2023-05-15T00:37:09.309Z,19.10
2023-05-15T00:39:56.569Z,19.10
2023-05-15T00:42:43.915Z,19.00
2023-05-15T00:45:32.134Z,19.00
2023-05-15T00:48:22.661Z,18.90
2023-05-15T00:51:10.617Z,18.90
2023-05-15T00:53:59.263Z,18.90
2023-05-15T00:56:47.867Z,18.90
2023-05-15T00:59:36.335Z,18.80
2023-05-15T01:02:23.674Z,18.80
2023-05-15T01:05:11.037Z,18.80
2023-05-15T01:08:20.914Z,18.80
2023-05-15T01:11:09.046Z,18.80
2023-05-15T01:13:56.223Z,18.80
2023-05-15T01:16:43.440Z,18.80
2023-05-15T01:19:30.976Z,18.70
2023-05-15T01:22:56.924Z,18.70
2023-05-15T01:26:22.272Z,18.70
2023-05-15T01:29:14.227Z,18.70
2023-05-15T01:32:13.192Z,18.60
2023-05-15T01:35:28.009Z,18.60
2023-05-15T01:38:22.004Z,18.60
2023-05-15T01:41:16.523Z,18.60
2023-05-15T01:44:06.620Z,18.60
2023-05-15T01:46:59.376Z,18.60
2023-05-15T01:49:49.778Z,18.50
2023-05-15T01:52:40.055Z,18.50
2023-05-15T01:55:29.426Z,18.50
2023-05-15T01:58:17.159Z,18.50
2023-05-15T02:01:05.963Z,18.50
2023-05-15T02:03:54.542Z,18.50
2023-05-15T02:06:42.308Z,18.50
2023-05-15T02:09:29.838Z,18.40
2023-05-15T02:12:18.220Z,18.40
2023-05-15T02:15:07.456Z,18.40
2023-05-15T02:17:55.275Z,18.40
2023-05-15T02:20:42.590Z,18.40
2023-05-15T02:23:29.877Z,18.40
2023-05-15T02:26:29.175Z,18.50
2023-05-15T02:29:21.949Z,18.50
2023-05-15T02:32:38.768Z,18.50
2023-05-15T02:35:52.351Z,18.50
2023-05-15T02:38:47.002Z,18.60
2023-05-15T02:41:36.815Z,18.60
2023-05-15T02:44:25.074Z,18.60
2023-05-15T02:47:12.633Z,18.60
2023-05-15T02:50:00.485Z,18.60
2023-05-15T02:52:47.774Z,18.60
2023-05-15T02:55:35.258Z,18.60
2023-05-15T02:58:22.473Z,18.60
2023-05-15T03:01:09.744Z,18.60
2023-05-15T03:03:57.072Z,18.60
2023-05-15T03:06:44.320Z,18.60
2023-05-15T03:09:31.459Z,18.50
2023-05-15T03:12:18.695Z,18.50
2023-05-15T03:15:07.246Z,18.50
2023-05-15T03:17:54.507Z,18.50
2023-05-15T03:20:42.567Z,18.60
2023-05-15T03:23:31.269Z,18.50
2023-05-15T03:26:18.389Z,18.50
2023-05-15T03:29:05.600Z,18.50
2023-05-15T03:31:52.878Z,18.60
2023-05-15T03:34:41.085Z,18.60
2023-05-15T03:37:28.674Z,18.60
2023-05-15T03:40:16.006Z,18.60
2023-05-15T03:43:03.243Z,18.60
2023-05-15T03:45:50.581Z,18.70
2023-05-15T03:48:37.808Z,18.70
2023-05-15T03:51:25.111Z,18.70
2023-05-15T03:54:12.334Z,18.70
2023-05-15T03:56:59.585Z,18.70
2023-05-15T03:59:46.771Z,18.70
2023-05-15T04:02:34.009Z,18.60
2023-05-15T04:05:21.957Z,18.60
2023-05-15T04:08:11.046Z,18.60
2023-05-15T04:10:58.265Z,18.60
2023-05-15T04:13:45.442Z,18.60
2023-05-15T04:16:32.727Z,18.60
2023-05-15T04:19:19.954Z,18.60
2023-05-15T04:22:07.159Z,18.60
2023-05-15T04:24:54.346Z,18.60
2023-05-15T04:27:42.594Z,18.50
2023-05-15T04:30:29.923Z,18.40
2023-05-15T04:33:17.067Z,18.30
2023-05-15T04:36:04.635Z,18.10
2023-05-15T04:38:51.913Z,18.10
2023-05-15T04:41:39.115Z,18.10
2023-05-15T04:44:26.623Z,18.10
2023-05-15T04:47:13.992Z,18.20
2023-05-15T04:50:01.200Z,18.20
2023-05-15T04:52:48.530Z,18.20
2023-05-15T04:55:35.804Z,18.30
2023-05-15T04:58:23.089Z,18.30
2023-05-15T05:01:10.408Z,18.30
2023-05-15T05:03:57.658Z,18.20
2023-05-15T05:06:45.234Z,18.10
2023-05-15T05:09:32.463Z,18.10
2023-05-15T05:12:19.709Z,18.10
2023-05-15T05:15:07.621Z,18.10
2023-05-15T05:17:54.961Z,18.10
2023-05-15T05:20:42.253Z,18.00
2023-05-15T05:23:30.446Z,18.00
2023-05-15T05:26:17.656Z,18.10
2023-05-15T05:29:04.814Z,18.20
2023-05-15T05:31:52.460Z,18.20
2023-05-15T05:34:39.817Z,18.30
2023-05-15T05:37:26.979Z,18.40
2023-05-15T05:40:14.373Z,18.40
2023-05-15T05:43:02.509Z,18.20
2023-05-15T05:45:49.794Z,18.10
2023-05-15T05:48:37.068Z,18.00
2023-05-15T05:51:24.408Z,18.00
2023-05-15T05:54:11.705Z,17.90
2023-05-15T05:56:58.934Z,17.90
2023-05-15T05:59:46.629Z,17.80
2023-05-15T06:02:33.986Z,17.70
2023-05-15T06:05:21.229Z,17.70
2023-05-15T06:08:09.273Z,17.70
2023-05-15T06:10:56.441Z,17.70
2023-05-15T06:13:43.733Z,17.70
2023-05-15T06:16:30.972Z,17.60
2023-05-15T06:19:18.498Z,17.70
2023-05-15T06:22:06.192Z,17.90
2023-05-15T06:24:53.360Z,18.00
2023-05-15T06:27:41.644Z,18.10
2023-05-15T06:30:28.878Z,18.10
2023-05-15T06:33:16.155Z,18.10
2023-05-15T06:36:03.771Z,18.10
2023-05-15T06:38:51.108Z,18.00
2023-05-15T06:41:38.639Z,18.00
2023-05-15T06:44:25.884Z,18.00
2023-05-15T06:47:13.381Z,18.00
2023-05-15T06:50:00.695Z,18.00
2023-05-15T06:52:47.985Z,18.10
2023-05-15T06:55:36.534Z,18.10
2023-05-15T06:58:24.034Z,18.20
2023-05-15T07:01:11.255Z,18.30
2023-05-15T07:03:58.571Z,18.30
2023-05-15T07:06:45.884Z,18.30
2023-05-15T07:09:33.144Z,18.30
2023-05-15T07:12:20.365Z,18.20
2023-05-15T07:15:08.039Z,18.30
2023-05-15T07:17:55.478Z,18.40
2023-05-15T07:20:42.842Z,18.50
2023-05-15T07:23:30.083Z,18.60
2023-05-15T07:26:27.473Z,18.60
2023-05-15T07:29:18.696Z,18.60
2023-05-15T07:32:06.122Z,18.80
2023-05-15T07:34:53.343Z,18.80
2023-05-15T07:37:41.020Z,18.80
2023-05-15T07:40:28.249Z,18.80
2023-05-15T07:43:15.697Z,18.90
2023-05-15T07:46:02.994Z,19.00
2023-05-15T07:48:50.220Z,19.00
2023-05-15T07:51:37.408Z,19.20
2023-05-15T07:54:24.639Z,19.20
2023-05-15T07:57:13.114Z,19.30
2023-05-15T08:00:00.494Z,19.40
2023-05-15T08:02:48.946Z,19.50
2023-05-15T08:05:36.293Z,19.60
2023-05-15T08:08:23.482Z,19.80
2023-05-15T08:11:10.772Z,19.90
2023-05-15T08:13:58.059Z,20.10
2023-05-15T08:16:45.344Z,20.20
2023-05-15T08:19:32.571Z,20.20
2023-05-15T08:22:19.932Z,20.30
2023-05-15T08:25:08.750Z,20.30
2023-05-15T08:27:55.955Z,20.40
2023-05-15T08:30:43.166Z,20.40
2023-05-15T08:33:30.492Z,20.50
2023-05-15T08:36:19.710Z,20.50
2023-05-15T08:39:09.286Z,20.60
2023-05-15T08:41:57.980Z,20.60
2023-05-15T08:44:46.063Z,20.60
2023-05-15T08:47:38.839Z,20.70
2023-05-15T08:50:26.868Z,20.80
2023-05-15T08:53:14.532Z,20.80
2023-05-15T08:56:02.388Z,20.80
2023-05-15T08:58:49.983Z,20.80
2023-05-15T09:01:37.687Z,20.90
2023-05-15T09:04:24.985Z,21.00
2023-05-15T09:07:12.401Z,21.00
2023-05-15T09:10:01.630Z,21.00
2023-05-15T09:12:51.679Z,20.90
2023-05-15T09:15:39.463Z,21.00
2023-05-15T09:18:26.965Z,21.10
2023-05-15T09:21:25.425Z,21.10
2023-05-15T09:24:19.395Z,21.20
2023-05-15T09:27:08.264Z,21.40
2023-05-15T09:29:57.961Z,21.50
2023-05-15T09:32:45.605Z,21.50
2023-05-15T09:35:33.702Z,21.40
2023-05-15T09:38:20.950Z,21.40
2023-05-15T09:41:09.125Z,21.40
2023-05-15T09:43:57.053Z,21.60
2023-05-15T09:46:44.369Z,21.60
2023-05-15T09:49:33.337Z,21.70
2023-05-15T09:52:22.128Z,21.60
2023-05-15T09:55:14.455Z,21.80
2023-05-15T09:58:16.171Z,21.80
2023-05-15T10:01:04.249Z,21.90
2023-05-15T10:04:03.265Z,22.00
2023-05-15T10:06:50.518Z,21.90
2023-05-15T10:09:38.229Z,21.90
2023-05-15T10:12:26.822Z,22.00
2023-05-15T10:15:14.862Z,22.10
2023-05-15T10:18:04.825Z,22.20
2023-05-15T10:20:52.333Z,22.30
2023-05-15T10:23:42.520Z,22.30
2023-05-15T10:26:40.544Z,22.30
2023-05-15T10:29:29.410Z,22.50
2023-05-15T10:32:17.454Z,22.50
2023-05-15T10:35:05.225Z,22.60
2023-05-15T10:37:53.768Z,22.60
2023-05-15T10:40:41.913Z,22.50
2023-05-15T10:43:29.898Z,22.70
2023-05-15T10:46:17.425Z,22.90
2023-05-15T10:49:05.199Z,22.90
2023-05-15T10:51:53.451Z,23.00
2023-05-15T10:54:40.744Z,23.00
2023-05-15T10:57:31.863Z,23.00
2023-05-15T11:00:27.355Z,22.90
2023-05-15T11:03:16.256Z,22.90
2023-05-15T11:06:16.193Z,22.90
2023-05-15T11:09:22.047Z,22.90
2023-05-15T11:12:11.717Z,22.80
2023-05-15T11:14:58.883Z,22.80
2023-05-15T11:18:11.182Z,22.70
2023-05-15T11:20:58.315Z,22.70
2023-05-15T11:23:47.565Z,22.60
2023-05-15T11:26:34.787Z,22.40
2023-05-15T11:29:24.277Z,22.30
2023-05-15T11:32:49.465Z,22.30
2023-05-15T11:35:42.230Z,22.30
2023-05-15T11:38:38.105Z,22.40
2023-05-15T11:41:31.998Z,22.40
2023-05-15T11:44:24.024Z,22.40
2023-05-15T11:47:11.718Z,22.40
2023-05-15T11:49:59.854Z,22.40
2023-05-15T11:52:49.383Z,22.10
2023-05-15T11:55:38.487Z,22.10
2023-05-15T11:58:26.161Z,22.00
2023-05-15T12:01:13.420Z,22.00
2023-05-15T12:04:00.940Z,22.00
2023-05-15T12:06:49.625Z,22.00
2023-05-15T12:09:39.285Z,22.00
2023-05-15T12:12:28.542Z,22.20
2023-05-15T12:15:17.373Z,22.20
2023-05-15T12:18:05.208Z,22.30
2023-05-15T12:20:53.516Z,22.30
2023-05-15T12:23:41.253Z,22.40
2023-05-15T12:26:29.842Z,22.40
2023-05-15T12:29:17.464Z,22.30
2023-05-15T12:32:05.795Z,22.30
2023-05-15T12:34:53.325Z,22.20
2023-05-15T12:37:42.674Z,22.10
2023-05-15T12:40:33.151Z,22.00
2023-05-15T12:43:23.857Z,21.90
2023-05-15T12:46:13.765Z,21.90
2023-05-15T12:49:01.757Z,22.00
2023-05-15T12:51:49.446Z,22.10
2023-05-15T12:54:43.961Z,21.80
2023-05-15T12:57:31.200Z,21.90
2023-05-15T13:00:21.444Z,21.80
2023-05-15T13:03:12.627Z,21.70
2023-05-15T13:06:02.022Z,21.70
2023-05-15T13:08:49.445Z,21.50
2023-05-15T13:11:36.727Z,21.50
2023-05-15T13:14:29.051Z,21.40
2023-05-15T13:17:16.343Z,21.30
2023-05-15T13:20:05.617Z,21.20
2023-05-15T13:22:52.858Z,21.20
2023-05-15T13:25:40.479Z,21.10
2023-05-15T13:28:27.730Z,21.00
2023-05-15T13:31:15.069Z,20.90
2023-05-15T13:34:02.333Z,20.70
2023-05-15T13:36:49.704Z,20.70
2023-05-15T13:39:36.998Z,20.60
2023-05-15T13:42:24.209Z,20.70
2023-05-15T13:45:13.709Z,20.70
2023-05-15T13:48:01.442Z,20.80
2023-05-15T13:50:48.813Z,20.70
2023-05-15T13:53:36.163Z,20.70
2023-05-15T13:56:23.472Z,20.80
2023-05-15T13:59:11.128Z,20.70
2023-05-15T14:01:58.357Z,20.70
2023-05-15T14:04:47.081Z,20.70
2023-05-15T14:07:34.295Z,20.70
2023-05-15T14:10:21.637Z,20.70
2023-05-15T14:13:08.780Z,20.70
2023-05-15T14:15:55.995Z,20.70
2023-05-15T14:18:43.281Z,20.70
2023-05-15T14:21:31.746Z,20.70
2023-05-15T14:24:18.949Z,20.70
2023-05-15T14:27:06.285Z,20.60
2023-05-15T14:29:53.518Z,20.60
2023-05-15T14:32:41.519Z,20.50
2023-05-15T14:35:29.229Z,20.50
2023-05-15T14:38:16.392Z,20.50
2023-05-15T14:41:03.575Z,20.40
2023-05-15T14:43:50.898Z,20.40
2023-05-15T14:46:38.440Z,20.40
2023-05-15T14:49:25.688Z,20.20
2023-05-15T14:52:13.120Z,20.20
2023-05-15T14:55:08.547Z,20.10
2023-05-15T14:57:58.322Z,20.10
2023-05-15T15:00:46.461Z,20.00
2023-05-15T15:03:34.281Z,20.10
2023-05-15T15:06:21.665Z,20.20
2023-05-15T15:09:08.894Z,20.20
2023-05-15T15:11:56.133Z,20.10
2023-05-15T15:14:43.391Z,20.10
2023-05-15T15:17:30.710Z,20.10
2023-05-15T15:20:19.822Z,20.00
2023-05-15T15:23:06.989Z,19.90
2023-05-15T15:25:54.349Z,19.90
2023-05-15T15:28:41.709Z,19.90
2023-05-15T15:31:30.471Z,20.00
2023-05-15T15:34:17.723Z,20.00
2023-05-15T15:37:05.028Z,20.00
2023-05-15T15:39:52.330Z,19.90
2023-05-15T15:42:39.669Z,19.80
2023-05-15T15:45:26.929Z,19.80
2023-05-15T15:48:14.196Z,19.90
2023-05-15T15:51:01.343Z,19.90
2023-05-15T15:53:48.546Z,20.00
2023-05-15T15:56:36.228Z,20.00
2023-05-15T15:59:23.414Z,20.00
2023-05-15T16:02:11.741Z,20.00
2023-05-15T16:04:59.110Z,20.00
2023-05-15T16:07:47.889Z,20.00
2023-05-15T16:10:35.128Z,20.00
2023-05-15T16:13:22.916Z,19.90
2023-05-15T16:16:10.641Z,19.80
2023-05-15T16:18:58.046Z,19.80
2023-05-15T16:21:45.299Z,19.80
2023-05-15T16:24:32.680Z,19.80
2023-05-15T16:27:19.849Z,19.70
2023-05-15T16:30:07.991Z,19.70
2023-05-15T16:32:55.291Z,19.80
2023-05-15T16:35:42.593Z,19.80
2023-05-15T16:38:29.808Z,19.80
2023-05-15T16:41:17.054Z,19.70
2023-05-15T16:44:06.227Z,19.50
2023-05-15T16:46:53.683Z,19.50
2023-05-15T16:49:43.401Z,19.60
2023-05-15T16:52:31.881Z,19.70
2023-05-15T16:55:19.650Z,19.80
2023-05-15T16:58:06.911Z,19.90
2023-05-15T17:00:54.190Z,19.80
2023-05-15T17:03:41.599Z,19.80
2023-05-15T17:06:28.961Z,19.80
2023-05-15T17:09:16.117Z,19.60
2023-05-15T17:12:03.447Z,19.60
2023-05-15T17:14:50.963Z,19.50
2023-05-15T17:17:38.327Z,19.40
2023-05-15T17:20:25.565Z,19.40
2023-05-15T17:23:12.854Z,19.40
2023-05-15T17:26:00.417Z,19.50
2023-05-15T17:28:47.662Z,19.50
2023-05-15T17:31:36.793Z,19.50
2023-05-15T17:34:24.289Z,19.40
2023-05-15T17:37:12.022Z,19.40
2023-05-15T17:40:00.152Z,19.40
2023-05-15T17:42:47.364Z,19.30
2023-05-15T17:45:34.639Z,19.30
2023-05-15T17:48:21.925Z,19.30
2023-05-15T17:51:09.256Z,19.30
2023-05-15T17:53:56.434Z,19.30
2023-05-15T17:56:44.076Z,19.30
2023-05-15T17:59:31.330Z,19.30
2023-05-15T18:02:18.618Z,19.30
2023-05-15T18:05:06.220Z,19.20
2023-05-15T18:07:56.254Z,19.20
2023-05-15T18:10:43.530Z,19.20
2023-05-15T18:13:30.747Z,19.10
2023-05-15T18:16:18.471Z,19.10
2023-05-15T18:19:05.950Z,19.10
2023-05-15T18:21:53.154Z,19.10
2023-05-15T18:24:40.449Z,19.10
2023-05-15T18:27:28.120Z,19.10
2023-05-15T18:30:15.502Z,19.10
2023-05-15T18:33:02.738Z,19.10
2023-05-15T18:35:50.004Z,19.10
2023-05-15T18:38:37.262Z,19.10
2023-05-15T18:41:24.552Z,19.10
2023-05-15T18:44:11.726Z,19.10
2023-05-15T18:46:59.006Z,19.10
2023-05-15T18:49:46.347Z,19.00
2023-05-15T18:52:33.621Z,18.90
2023-05-15T18:55:21.844Z,18.90
2023-05-15T18:58:09.100Z,18.90
2023-05-15T19:00:56.629Z,18.90
2023-05-15T19:03:44.132Z,18.90
2023-05-15T19:06:31.589Z,18.90
2023-05-15T19:09:19.034Z,18.90
2023-05-15T19:12:06.714Z,18.80
2023-05-15T19:14:53.877Z,18.90
2023-05-15T19:17:41.232Z,18.80
2023-05-15T19:20:28.690Z,18.90
2023-05-15T19:23:15.976Z,18.80
2023-05-15T19:26:03.394Z,18.80
2023-05-15T19:28:50.730Z,18.80
2023-05-15T19:31:38.814Z,18.70
2023-05-15T19:34:26.335Z,18.70
2023-05-15T19:37:13.538Z,18.70
2023-05-15T19:40:00.808Z,18.60
2023-05-15T19:42:48.148Z,18.50
2023-05-15T19:45:35.373Z,18.40
2023-05-15T19:48:22.563Z,18.40
2023-05-15T19:51:09.861Z,18.50
2023-05-15T19:53:59.204Z,18.50
2023-05-15T19:56:46.477Z,18.60
2023-05-15T19:59:33.721Z,18.60
2023-05-15T20:02:21.145Z,18.60
2023-05-15T20:05:08.896Z,18.60
2023-05-15T20:07:56.335Z,18.50
2023-05-15T20:10:44.557Z,18.50
2023-05-15T20:13:32.026Z,18.50
2023-05-15T20:16:19.386Z,18.60
2023-05-15T20:19:06.699Z,18.60
2023-05-15T20:21:53.958Z,18.60
2023-05-15T20:24:41.228Z,18.60
2023-05-15T20:27:28.461Z,18.60
2023-05-15T20:30:15.869Z,18.60
2023-05-15T20:33:03.290Z,18.60
2023-05-15T20:35:51.551Z,18.60
2023-05-15T20:38:38.853Z,18.60
2023-05-15T20:41:26.048Z,18.60
2023-05-15T20:44:13.276Z,18.50
2023-05-15T20:47:00.470Z,18.50
2023-05-15T20:49:47.740Z,18.40
2023-05-15T20:52:34.910Z,18.40
2023-05-15T20:55:22.252Z,18.50
2023-05-15T20:58:09.514Z,18.50
2023-05-15T21:00:58.288Z,18.50
2023-05-15T21:03:45.537Z,18.40
2023-05-15T21:06:32.862Z,18.40
2023-05-15T21:09:20.055Z,18.30
2023-05-15T21:12:07.653Z,18.30
2023-05-15T21:14:54.880Z,18.30
2023-05-15T21:17:42.189Z,18.40
2023-05-15T21:20:29.744Z,18.40
2023-05-15T21:23:16.961Z,18.30
2023-05-15T21:26:04.600Z,18.30
2023-05-15T21:28:51.809Z,18.30
2023-05-15T21:31:39.064Z,18.40
2023-05-15T21:34:26.376Z,18.40
2023-05-15T21:37:13.657Z,18.40
2023-05-15T21:40:01.915Z,18.40
2023-05-15T21:42:49.214Z,18.20
2023-05-15T21:45:36.463Z,18.20
2023-05-15T21:48:23.682Z,18.20
2023-05-15T21:51:10.873Z,18.20
2023-05-15T21:53:58.067Z,18.20
2023-05-15T21:56:45.358Z,18.10
2023-05-15T21:59:32.508Z,18.20
2023-05-15T22:02:19.701Z,18.10
2023-05-15T22:05:07.077Z,18.20
2023-05-15T22:07:54.457Z,18.10
2023-05-15T22:10:41.907Z,18.20
2023-05-15T22:13:29.182Z,18.10
2023-05-15T22:16:16.482Z,18.10
2023-05-15T22:19:04.065Z,18.00
2023-05-15T22:21:51.407Z,18.00
2023-05-15T22:24:38.723Z,18.00
2023-05-15T22:27:26.913Z,18.00
2023-05-15T22:30:14.239Z,18.00
2023-05-15T22:33:01.823Z,18.00
2023-05-15T22:35:49.046Z,18.00
2023-05-15T22:38:36.219Z,17.90
2023-05-15T22:41:23.413Z,17.90
2023-05-15T22:44:10.677Z,17.90
2023-05-15T22:46:57.937Z,17.90
2023-05-15T22:49:45.173Z,17.90
2023-05-15T22:52:32.551Z,17.90
2023-05-15T22:55:19.746Z,17.80
2023-05-15T22:58:07.138Z,17.80
2023-05-15T23:00:54.351Z,17.80
2023-05-15T23:03:41.662Z,17.80
2023-05-15T23:06:28.853Z,17.80
2023-05-15T23:09:16.180Z,17.80
2023-05-15T23:12:04.431Z,17.80
2023-05-15T23:14:51.719Z,17.80
2023-05-15T23:17:39.422Z,17.70
2023-05-15T23:20:27.116Z,17.70
2023-05-15T23:23:15.115Z,17.70
2023-05-15T23:26:02.425Z,17.60
2023-05-15T23:28:50.196Z,17.60
2023-05-15T23:31:37.441Z,17.50
2023-05-15T23:34:24.655Z,17.50
2023-05-15T23:37:11.866Z,17.40
2023-05-15T23:39:59.078Z,17.40
2023-05-15T23:42:46.829Z,17.30
2023-05-15T23:45:34.116Z,17.30
2023-05-15T23:48:21.383Z,17.30
2023-05-15T23:51:08.572Z,17.30
2023-05-15T23:53:55.863Z,17.30
2023-05-15T23:56:43.060Z,17.20
2023-05-15T23:59:31.079Z,17.20
